Palmer Lake, Colorado
Current Conditions -  °F | °C
As of 3:58 PM on Sunday 21 Dec 2014 (Local Time) from KAFF Reporting Station
Few Clouds Few Clouds  
Wind Chill: 40°   Ceiling: Unl
Heat Index: 45°   Visibility: 10mi
Dew Point: 22°   Wind: 10mph
Humidity: 40%   Direction: 300°WNW
Pressure: 29.6"   Gusts: NA
Location:  39.12°N, 104.92°W
Report Text: KAFF 212258Z AUTO 30009KT 10SM FEW150 07/M06 A2960 RMK AO2 PK WND 30026/29 SLP018 T00741056
Loading
Personal Weather Stations






























Interactive Weather Map New forecast layout! Learn more

10-Day Weather Forecast

Advertisements
Track Severe Weather on mobile